Time;durP1;ratioP1;P1;durP2;ratioP2;P2;SDS_P1;SDS_P2;PMS_P1;PMS_P2;Temp;Humidity;BMP_temperature;BMP_pressure;BME280_temperature;BME280_humidity;BME280_pressure;Samples;Min_cycle;Max_cycle;Signal;HPM_P1;HPM_P2
2021/05/20 00:00:21;;;;;;;0.75;0.30;;;;;;;14.55;78.85;99823.13;1749507;82;20894;-73
2021/05/20 00:02:48;;;;;;;1.42;0.30;;;;;;;14.53;78.86;99824.20;1749311;82;21088;-73
2021/05/20 00:05:18;;;;;;;1.42;0.30;;;;;;;14.50;78.80;99824.00;1749452;80;20968;-73
2021/05/20 00:07:46;;;;;;;1.65;0.30;;;;;;;14.47;78.83;99834.80;1749431;82;20942;-72
2021/05/20 00:10:16;;;;;;;0.20;0.20;;;;;;;14.44;78.83;99831.96;1749166;82;20965;-72
2021/05/20 00:12:44;;;;;;;0.37;0.30;;;;;;;14.44;78.78;99837.23;1749321;82;21456;-73
2021/05/20 00:15:12;;;;;;;0.80;0.80;;;;;;;14.44;78.82;99835.92;1749295;82;21042;-72
2021/05/20 00:17:40;;;;;;;1.35;0.50;;;;;;;14.45;78.88;99831.47;1749224;80;20934;-72
2021/05/20 00:20:10;;;;;;;0.72;0.72;;;;;;;14.45;78.66;99840.24;1749364;80;20898;-73
2021/05/20 00:22:37;;;;;;;0.30;0.30;;;;;;;14.42;78.52;99842.30;1749421;82;21384;-72
2021/05/20 00:25:06;;;;;;;4.33;0.30;;;;;;;14.41;78.22;99848.56;1749426;80;20938;-73
2021/05/20 00:27:33;;;;;;;0.78;0.20;;;;;;;14.35;77.98;99850.42;1749399;82;21066;-74
2021/05/20 00:30:00;;;;;;;1.98;0.20;;;;;;;14.29;78.10;99857.05;1749259;81;20894;-72
2021/05/20 00:32:27;;;;;;;1.50;0.20;;;;;;;14.24;77.77;99846.91;1749302;82;20957;-73
2021/05/20 00:34:55;;;;;;;1.35;0.20;;;;;;;14.22;77.56;99855.93;1749483;82;21005;-73
2021/05/20 00:37:22;;;;;;;0.37;0.20;;;;;;;14.17;77.48;99854.19;1749300;80;20878;-74
2021/05/20 00:39:49;;;;;;;0.72;0.20;;;;;;;14.12;77.45;99856.37;1749310;82;21021;-73
2021/05/20 00:42:15;;;;;;;0.10;0.10;;;;;;;14.13;77.43;99858.05;1749375;80;20969;-73
2021/05/20 00:44:56;;;;;;;0.37;0.20;;;;;;;14.09;77.33;99842.97;1749462;82;21359;-73
2021/05/20 00:47:30;;;;;;;1.92;0.55;;;;;;;14.09;77.31;99854.84;1749285;80;21451;-72
2021/05/20 00:49:58;;;;;;;1.77;0.30;;;;;;;14.10;77.39;99865.75;1749485;81;20926;-73
2021/05/20 00:52:26;;;;;;;0.30;0.30;;;;;;;14.08;76.93;99855.83;1749564;80;21054;-72
2021/05/20 00:54:58;;;;;;;0.57;0.28;;;;;;;14.09;76.87;99856.16;1749492;82;20910;-72
2021/05/20 00:57:25;;;;;;;1.45;0.30;;;;;;;14.08;76.70;99856.65;1749468;80;20942;-71
2021/05/20 00:59:51;;;;;;;0.25;0.25;;;;;;;14.05;76.37;99848.16;1749539;82;20942;-72
2021/05/20 01:02:20;;;;;;;2.80;0.20;;;;;;;14.01;75.81;99850.25;1749483;80;20863;-74
2021/05/20 01:04:47;;;;;;;0.75;0.23;;;;;;;13.97;75.50;99855.92;1749769;80;20997;-74
2021/05/20 01:07:14;;;;;;;0.30;0.20;;;;;;;13.92;75.42;99857.64;1749402;82;21132;-73
2021/05/20 01:09:43;;;;;;;0.53;0.20;;;;;;;13.88;74.87;99854.91;1749372;82;21511;-71
2021/05/20 01:12:11;;;;;;;0.85;0.20;;;;;;;13.85;74.77;99857.79;1749359;82;20934;-72
2021/05/20 01:14:44;;;;;;;0.35;0.20;;;;;;;13.82;74.62;99854.94;1749598;82;21530;-74
2021/05/20 01:17:12;;;;;;;0.20;0.20;;;;;;;13.80;74.72;99858.67;1749786;82;21099;-72
2021/05/20 01:19:44;;;;;;;2.17;0.30;;;;;;;13.81;74.94;99867.78;1749464;82;21399;-72
2021/05/20 01:22:12;;;;;;;1.07;0.30;;;;;;;13.79;74.76;99866.25;1749578;82;20886;-72
2021/05/20 01:24:40;;;;;;;1.27;0.10;;;;;;;13.76;74.94;99872.62;1749512;82;20883;-73
2021/05/20 01:27:07;;;;;;;0.47;0.20;;;;;;;13.73;74.93;99870.23;1749471;82;20918;-71
2021/05/20 01:29:35;;;;;;;1.85;0.23;;;;;;;13.68;74.50;99874.58;1749541;82;21900;-71
2021/05/20 01:32:03;;;;;;;0.35;0.20;;;;;;;13.63;74.55;99883.36;1735485;81;20899;-72
2021/05/20 01:34:33;;;;;;;0.35;0.25;;;;;;;13.59;74.61;99887.70;1735412;82;21395;-71
2021/05/20 01:37:06;;;;;;;0.95;0.28;;;;;;;13.56;74.74;99891.89;1735410;82;21400;-71
2021/05/20 01:39:33;;;;;;;0.10;0.10;;;;;;;13.48;74.86;99888.11;1735431;81;21451;-72
2021/05/20 01:42:01;;;;;;;1.27;0.20;;;;;;;13.41;75.20;99888.77;1735407;82;21867;-70
2021/05/20 01:44:28;;;;;;;0.62;0.53;;;;;;;13.35;75.41;99895.37;1735419;82;20895;-71
2021/05/20 01:46:56;;;;;;;0.10;0.10;;;;;;;13.30;75.53;99894.09;1735453;82;20954;-72
2021/05/20 01:49:23;;;;;;;0.68;0.13;;;;;;;13.25;75.64;99895.73;1735397;82;20926;-73
2021/05/20 01:51:50;;;;;;;2.85;1.80;;;;;;;13.21;75.88;99894.34;1735367;82;20903;-70
2021/05/20 01:54:18;;;;;;;0.35;0.30;;;;;;;13.18;76.11;99902.48;1735473;81;21803;-71
2021/05/20 01:56:45;;;;;;;0.57;0.13;;;;;;;13.17;76.47;99902.14;1735456;82;20944;-71
2021/05/20 01:59:12;;;;;;;0.60;0.28;;;;;;;13.17;76.72;99903.45;1735318;81;20922;-71
2021/05/20 02:01:41;;;;;;;0.33;0.20;;;;;;;13.17;76.98;99908.23;1735352;81;20899;-72
2021/05/20 02:04:07;;;;;;;1.47;0.37;;;;;;;13.20;77.06;99906.65;1735583;82;20879;-72
2021/05/20 02:06:37;;;;;;;1.85;0.40;;;;;;;13.24;77.13;99906.75;1735445;81;21018;-71
2021/05/20 02:09:06;;;;;;;1.37;0.40;;;;;;;13.29;77.09;99911.67;1735442;82;20947;-71
2021/05/20 02:11:34;;;;;;;0.40;0.40;;;;;;;13.34;77.12;99910.83;1735346;82;20931;-72
2021/05/20 02:14:01;;;;;;;2.33;0.57;;;;;;;13.36;77.26;99912.86;1735359;82;20910;-72
2021/05/20 02:16:28;;;;;;;1.77;0.50;;;;;;;13.42;77.43;99912.81;1735442;82;20930;-73
2021/05/20 02:18:55;;;;;;;1.55;0.80;;;;;;;13.45;77.62;99906.81;1735477;82;21451;-71
2021/05/20 02:21:22;;;;;;;0.88;0.50;;;;;;;13.48;77.58;99907.87;1735363;81;21344;-72
2021/05/20 02:23:50;;;;;;;4.72;1.65;;;;;;;13.51;77.65;99901.50;1735424;82;20891;-72
2021/05/20 02:26:17;;;;;;;0.70;0.65;;;;;;;13.54;77.54;99913.12;1735438;82;20906;-72
2021/05/20 02:28:44;;;;;;;1.87;1.00;;;;;;;13.56;77.54;99912.52;1735448;82;20994;-73
2021/05/20 02:31:11;;;;;;;1.98;0.70;;;;;;;13.57;77.49;99910.70;1742051;81;21055;-72
2021/05/20 02:33:38;;;;;;;1.67;0.98;;;;;;;13.54;77.47;99906.99;1749464;82;21403;-71
2021/05/20 02:36:05;;;;;;;0.85;0.72;;;;;;;13.55;77.50;99913.45;1749465;82;21499;-73
2021/05/20 02:38:32;;;;;;;1.62;0.82;;;;;;;13.57;77.25;99917.30;1749408;82;20886;-72
2021/05/20 02:40:59;;;;;;;1.62;0.82;;;;;;;13.61;77.26;99917.39;1749372;80;20918;-75
2021/05/20 02:43:26;;;;;;;2.20;0.90;;;;;;;13.63;77.32;99914.15;1749469;82;21095;-74
2021/05/20 02:45:53;;;;;;;1.77;1.20;;;;;;;13.63;77.04;99921.56;1749479;82;21033;-73
2021/05/20 02:48:20;;;;;;;0.90;0.80;;;;;;;13.65;76.99;99918.78;1749477;80;20874;-73
2021/05/20 02:50:49;;;;;;;1.45;1.07;;;;;;;13.67;76.87;99911.58;1749220;82;20930;-74
2021/05/20 02:53:16;;;;;;;1.00;0.75;;;;;;;13.66;76.76;99918.66;1749394;82;21415;-74
2021/05/20 02:55:43;;;;;;;4.72;1.30;;;;;;;13.65;76.45;99914.37;1749414;80;21510;-75
2021/05/20 02:58:13;;;;;;;2.37;1.30;;;;;;;13.62;76.25;99925.63;1749290;80;21435;-75
2021/05/20 03:00:39;;;;;;;1.40;0.85;;;;;;;13.61;75.95;99921.34;1749160;80;21390;-74
2021/05/20 03:03:06;;;;;;;1.70;0.70;;;;;;;13.61;75.68;99923.98;1749476;82;20935;-75
2021/05/20 03:05:33;;;;;;;0.88;0.68;;;;;;;13.59;75.54;99918.83;1749428;82;20962;-73
2021/05/20 03:08:00;;;;;;;1.12;0.75;;;;;;;13.58;75.39;99929.48;1749317;82;21090;-74
2021/05/20 03:10:28;;;;;;;1.12;0.75;;;;;;;13.58;75.23;99926.85;1749353;80;20938;-73
2021/05/20 03:12:55;;;;;;;0.90;0.90;;;;;;;13.58;75.32;99930.80;1749557;80;21463;-73
2021/05/20 03:15:22;;;;;;;2.65;0.82;;;;;;;13.54;75.34;99921.48;1749419;80;20938;-74
2021/05/20 03:17:50;;;;;;;4.10;1.10;;;;;;;13.52;75.14;99920.77;1749656;82;21411;-73
2021/05/20 03:20:17;;;;;;;2.05;1.50;;;;;;;13.50;75.28;99911.70;1749313;80;21128;-73
2021/05/20 03:22:46;;;;;;;3.27;0.80;;;;;;;13.52;75.06;99916.81;1749240;82;20987;-74
2021/05/20 03:25:15;;;;;;;0.90;0.50;;;;;;;13.57;74.78;99918.12;1749460;82;21005;-74
2021/05/20 03:27:42;;;;;;;0.68;0.50;;;;;;;13.62;74.73;99928.27;1749441;81;20875;-74
2021/05/20 03:30:12;;;;;;;1.05;0.85;;;;;;;13.64;74.50;99929.80;1749236;82;20898;-73
2021/05/20 03:32:40;;;;;;;2.47;0.85;;;;;;;13.65;74.45;99929.31;1749295;82;21651;-73
2021/05/20 03:35:09;;;;;;;0.60;0.60;;;;;;;13.65;74.41;99931.50;1749269;80;20986;-74
2021/05/20 03:37:36;;;;;;;4.00;0.95;;;;;;;13.66;74.42;99930.52;1749270;82;21001;-74
2021/05/20 03:40:06;;;;;;;3.75;0.55;;;;;;;13.66;74.38;99938.91;1749384;82;21040;-73
2021/05/20 03:42:34;;;;;;;2.83;1.22;;;;;;;13.68;74.11;99938.30;1749408;82;21561;-74
2021/05/20 03:45:03;;;;;;;1.92;0.33;;;;;;;13.69;74.17;99942.59;1749413;82;21501;-73
2021/05/20 03:47:30;;;;;;;4.55;1.92;;;;;;;13.72;74.21;99947.63;1749369;82;21478;-73
2021/05/20 03:49:57;;;;;;;4.85;2.25;;;;;;;13.74;74.05;99949.65;1749539;82;20994;-73
2021/05/20 03:52:24;;;;;;;4.37;0.90;;;;;;;13.78;73.76;99949.72;1749385;82;21006;-74
2021/05/20 03:54:51;;;;;;;1.27;0.85;;;;;;;13.83;73.71;99952.83;1749407;82;20850;-75
2021/05/20 03:57:18;;;;;;;0.55;0.35;;;;;;;13.86;73.20;99953.05;1749401;82;21918;-75
2021/05/20 03:59:45;;;;;;;0.82;0.47;;;;;;;13.94;73.07;99950.61;1749175;81;20981;-73
2021/05/20 04:02:12;;;;;;;0.72;0.45;;;;;;;13.99;72.83;99954.99;1749395;82;21384;-74
2021/05/20 04:04:39;;;;;;;1.17;0.50;;;;;;;14.07;72.98;99965.73;1749217;82;20904;-71
2021/05/20 04:07:06;;;;;;;1.62;0.40;;;;;;;14.12;72.69;99966.66;1749377;80;20978;-72
2021/05/20 04:09:33;;;;;;;1.07;0.30;;;;;;;14.14;72.46;99979.69;1749245;82;21035;-73
2021/05/20 04:12:01;;;;;;;1.42;0.93;;;;;;;14.14;72.28;99984.95;1749189;82;20894;-73
2021/05/20 04:14:29;;;;;;;1.22;0.57;;;;;;;14.11;71.73;99991.34;1749450;80;20898;-73
2021/05/20 04:16:56;;;;;;;2.20;0.60;;;;;;;14.11;71.73;99991.34;1749310;82;21490;-74
2021/05/20 04:19:23;;;;;;;0.70;0.50;;;;;;;14.14;71.64;99988.45;1749369;82;20938;-75
2021/05/20 04:21:50;;;;;;;2.90;0.45;;;;;;;14.16;71.52;99994.89;1749276;80;21873;-75
2021/05/20 04:24:21;;;;;;;0.50;0.50;;;;;;;14.17;71.48;100001.37;1749269;82;20938;-73
2021/05/20 04:26:46;;;;;;;2.92;1.10;;;;;;;14.18;71.44;100000.39;1749118;80;21484;-74
2021/05/20 04:29:13;;;;;;;1.75;0.82;;;;;;;14.22;71.10;99997.84;1749158;80;20906;-75
2021/05/20 04:31:40;;;;;;;2.60;0.40;;;;;;;14.28;71.02;100003.92;1749362;81;20890;-77
2021/05/20 04:34:07;;;;;;;3.50;0.60;;;;;;;14.32;70.79;100013.74;1749357;80;21029;-73
2021/05/20 04:36:34;;;;;;;1.12;0.50;;;;;;;14.34;70.52;100009.17;1749211;82;20989;-74
2021/05/20 04:39:01;;;;;;;0.98;0.40;;;;;;;14.39;70.20;100010.92;1749373;82;20894;-74
2021/05/20 04:41:28;;;;;;;2.08;0.50;;;;;;;14.45;70.31;100017.45;1749254;82;21004;-75
2021/05/20 04:45:54;;;;;;;3.02;0.72;;;;;;;14.57;70.23;100014.30;1815423;79;22351;-77
2021/05/20 04:48:21;;;;;;;0.90;0.50;;;;;;;14.61;70.06;100007.80;1788626;80;20905;-75
2021/05/20 04:50:48;;;;;;;0.68;0.45;;;;;;;14.61;70.06;100007.80;1788786;80;21573;-73
2021/05/20 04:53:15;;;;;;;0.50;0.35;;;;;;;14.68;69.94;100012.39;1788543;80;20901;-72
2021/05/20 04:55:42;;;;;;;2.70;1.27;;;;;;;14.73;69.28;100013.80;1788709;80;20940;-72
2021/05/20 04:58:09;;;;;;;0.30;0.30;;;;;;;14.74;69.08;100016.31;1788577;80;21012;-73
2021/05/20 05:00:36;;;;;;;3.98;0.30;;;;;;;14.78;68.74;100022.14;1788886;80;20885;-72
2021/05/20 05:03:03;;;;;;;1.10;0.45;;;;;;;14.84;68.82;100018.98;1788748;79;21057;-74
2021/05/20 05:05:30;;;;;;;0.75;0.30;;;;;;;14.91;68.69;100022.74;1788555;80;20932;-72
2021/05/20 05:08:00;;;;;;;0.70;0.60;;;;;;;14.97;68.40;100022.20;1788654;80;20937;-72
2021/05/20 05:10:28;;;;;;;1.45;0.35;;;;;;;15.05;68.10;100021.05;1788459;80;21438;-71
2021/05/20 05:12:55;;;;;;;0.95;0.37;;;;;;;15.19;67.13;100030.39;1788720;80;20897;-74
2021/05/20 05:15:23;;;;;;;0.40;0.40;;;;;;;15.19;67.13;100030.39;1788448;79;20980;-73
2021/05/20 05:17:50;;;;;;;0.60;0.42;;;;;;;15.27;67.09;100033.20;1788490;80;20929;-71
2021/05/20 05:20:19;;;;;;;3.67;0.70;;;;;;;15.30;66.59;100026.80;1788588;80;20905;-70
2021/05/20 05:22:45;;;;;;;4.45;0.40;;;;;;;15.59;66.01;100028.14;1788586;79;20913;-72
2021/05/20 05:25:12;;;;;;;1.05;0.28;;;;;;;15.59;66.01;100028.14;1788656;80;20988;-72
2021/05/20 05:27:39;;;;;;;0.47;0.30;;;;;;;15.85;65.18;100033.73;1788576;80;21043;-70
2021/05/20 05:30:07;;;;;;;0.15;0.15;;;;;;;16.34;64.31;100037.58;1788583;80;20897;-71
2021/05/20 05:32:34;;;;;;;1.85;0.30;;;;;;;16.80;61.90;100035.92;1788748;80;20998;-71
2021/05/20 05:35:01;;;;;;;1.47;0.55;;;;;;;17.35;60.33;100043.00;1788659;80;20945;-73
2021/05/20 05:37:28;;;;;;;1.22;0.30;;;;;;;17.79;59.21;100034.63;1788684;80;20909;-72
2021/05/20 05:39:55;;;;;;;2.92;0.45;;;;;;;18.35;58.44;100027.26;1788598;80;21494;-71
2021/05/20 05:42:22;;;;;;;1.50;0.40;;;;;;;18.92;57.31;100030.72;1788674;80;21000;-72
2021/05/20 05:44:49;;;;;;;0.98;0.30;;;;;;;19.54;55.23;100023.72;1782863;78;21048;-70
2021/05/20 05:47:16;;;;;;;2.92;0.30;;;;;;;19.87;53.59;100022.41;1775599;80;21020;-71
2021/05/20 05:49:46;;;;;;;0.50;0.20;;;;;;;20.19;52.18;100022.88;1775713;80;20929;-71
2021/05/20 05:52:19;;;;;;;0.57;0.28;;;;;;;20.41;52.15;100018.67;1775769;80;21682;-71
2021/05/20 05:54:41;;;;;;;0.80;0.20;;;;;;;20.74;51.43;100021.75;1774729;80;20989;-71
2021/05/20 05:57:08;;;;;;;2.02;0.30;;;;;;;21.05;50.20;100014.59;1775121;80;20910;-72
2021/05/20 05:59:36;;;;;;;0.30;0.20;;;;;;;21.33;49.42;100010.11;1775089;79;20866;-73
2021/05/20 06:02:03;;;;;;;0.85;0.20;;;;;;;21.37;48.30;100010.08;1775124;79;21506;-72
2021/05/20 06:04:30;;;;;;;1.12;0.37;;;;;;;21.39;47.44;100013.41;1775100;80;21031;-73
2021/05/20 06:06:58;;;;;;;1.27;0.33;;;;;;;21.48;47.58;100013.70;1774935;80;20937;-72
2021/05/20 06:09:25;;;;;;;0.80;0.17;;;;;;;21.63;47.64;100011.58;1775069;80;21419;-72
2021/05/20 06:11:52;;;;;;;2.95;0.53;;;;;;;21.86;47.20;100011.57;1775109;80;20953;-69
2021/05/20 06:14:20;;;;;;;0.25;0.25;;;;;;;22.13;46.43;100022.16;1775056;80;21411;-70
2021/05/20 06:16:49;;;;;;;3.40;0.37;;;;;;;22.29;46.08;100019.34;1774979;80;20890;-69
2021/05/20 06:19:17;;;;;;;1.32;0.30;;;;;;;22.53;45.76;100025.44;1774907;80;20926;-70
2021/05/20 06:21:44;;;;;;;1.10;0.80;;;;;;;22.75;45.12;100026.35;1775166;80;20894;-69
2021/05/20 06:24:11;;;;;;;1.37;0.50;;;;;;;22.97;44.79;100017.38;1775105;80;20929;-73
2021/05/20 06:26:38;;;;;;;0.65;0.20;;;;;;;23.14;44.56;100021.17;1775036;79;20988;-73
2021/05/20 06:29:05;;;;;;;0.40;0.28;;;;;;;23.21;44.04;100027.45;1775086;80;22014;-76
2021/05/20 06:31:33;;;;;;;2.92;0.37;;;;;;;23.30;44.43;100028.98;1775107;80;20973;-73
2021/05/20 06:34:00;;;;;;;1.95;0.55;;;;;;;23.46;44.33;100031.11;1775131;80;21453;-68
2021/05/20 06:36:27;;;;;;;2.85;0.40;;;;;;;23.51;43.66;100030.84;1774975;80;20906;-82
2021/05/20 06:38:54;;;;;;;2.17;0.60;;;;;;;23.49;43.19;100030.20;1775093;79;20906;-74
2021/05/20 06:41:21;;;;;;;2.10;0.40;;;;;;;23.65;43.79;100041.16;1775176;80;21022;-73
2021/05/20 06:43:48;;;;;;;2.15;0.50;;;;;;;23.91;42.60;100039.78;1774976;80;20917;-73
2021/05/20 06:46:19;;;;;;;2.00;0.42;;;;;;;23.93;42.04;100042.58;1770209;79;20901;-74
2021/05/20 06:48:47;;;;;;;1.57;0.30;;;;;;;23.74;41.98;100041.85;1775067;79;20921;-73
2021/05/20 06:51:13;;;;;;;1.90;0.47;;;;;;;23.71;42.51;100054.30;1775004;80;21650;-71
2021/05/20 06:53:40;;;;;;;1.95;0.65;;;;;;;23.51;42.31;100059.45;1775098;79;21451;-73
2021/05/20 06:56:15;;;;;;;1.22;0.47;;;;;;;23.37;42.43;100048.61;1774967;80;20929;-71
2021/05/20 07:01:23;;;;;;;1.77;0.42;;;;;;;23.21;43.00;100050.68;1775165;80;20973;-73
2021/05/20 07:03:50;;;;;;;1.82;0.20;;;;;;;23.33;43.36;100042.49;1774983;80;20997;-71
2021/05/20 07:06:17;;;;;;;1.60;0.50;;;;;;;23.47;42.71;100048.80;1775155;79;20984;-72
2021/05/20 07:08:44;;;;;;;1.40;0.60;;;;;;;23.55;42.35;100043.34;1774873;80;21398;-72
2021/05/20 07:11:12;;;;;;;1.35;0.35;;;;;;;23.68;41.72;100039.45;1775011;79;21064;-74
2021/05/20 07:13:40;;;;;;;2.10;0.30;;;;;;;23.89;41.81;100040.48;1775025;79;21313;-73
2021/05/20 07:16:07;;;;;;;1.47;0.20;;;;;;;24.10;42.35;100051.66;1774987;79;20909;-74
2021/05/20 07:18:34;;;;;;;1.27;0.25;;;;;;;24.17;41.67;100044.00;1775012;79;21416;-71
2021/05/20 07:21:01;;;;;;;2.08;0.37;;;;;;;24.19;41.62;100044.64;1774995;80;21489;-72
2021/05/20 07:23:30;;;;;;;0.65;0.30;;;;;;;24.32;41.42;100057.31;1774935;80;20854;-71
2021/05/20 07:25:57;;;;;;;1.57;0.93;;;;;;;24.46;40.42;100059.56;1775072;80;22298;-73
2021/05/20 07:28:24;;;;;;;2.20;0.20;;;;;;;24.66;39.46;100062.91;1775121;80;20942;-74
2021/05/20 07:30:50;;;;;;;2.25;0.20;;;;;;;24.75;40.21;100061.20;1775049;80;21027;-72
2021/05/20 07:33:17;;;;;;;1.20;0.33;;;;;;;24.74;39.73;100065.41;1775046;80;20898;-72
2021/05/20 07:35:44;;;;;;;0.80;0.45;;;;;;;24.82;39.28;100055.86;1775061;79;21384;-72
2021/05/20 07:38:11;;;;;;;2.25;0.20;;;;;;;24.90;39.15;100058.88;1774912;80;21028;-72
2021/05/20 07:40:38;;;;;;;1.00;0.30;;;;;;;24.78;39.21;100061.30;1774937;79;20930;-72
2021/05/20 07:43:06;;;;;;;0.98;0.30;;;;;;;24.65;39.70;100059.89;1774972;80;21091;-71
2021/05/20 07:45:33;;;;;;;0.23;0.17;;;;;;;24.43;39.43;100059.93;1774970;80;21005;-71
2021/05/20 07:48:01;;;;;;;0.68;0.20;;;;;;;24.27;39.83;100062.92;1774978;80;20977;-70
2021/05/20 07:50:28;;;;;;;0.93;0.30;;;;;;;24.38;40.30;100061.86;1774966;79;20918;-72
2021/05/20 07:52:55;;;;;;;0.88;0.40;;;;;;;24.51;39.70;100074.56;1775197;80;20902;-71
2021/05/20 07:55:22;;;;;;;2.27;0.30;;;;;;;24.39;39.43;100076.11;1775020;80;21018;-72
2021/05/20 07:57:53;;;;;;;2.12;0.30;;;;;;;24.17;39.85;100070.80;1774842;80;21505;-70
2021/05/20 08:00:21;;;;;;;0.70;0.30;;;;;;;24.10;40.73;100069.92;1775285;80;21008;-71
2021/05/20 08:02:58;;;;;;;2.22;0.25;;;;;;;24.22;40.23;100067.53;1774934;79;21530;-71
2021/05/20 08:13:05;;;;;;;0.50;0.50;;;;;;;24.40;39.57;100058.99;1775105;80;20922;-72
2021/05/20 08:15:33;;;;;;;1.80;0.37;;;;;;;24.26;39.71;100062.10;1774869;79;21422;-70
2021/05/20 08:18:00;;;;;;;3.98;0.85;;;;;;;24.27;40.12;100063.74;1774961;80;20989;-72
2021/05/20 08:20:28;;;;;;;2.80;0.68;;;;;;;24.20;40.17;100054.84;1774968;80;21748;-70
2021/05/20 08:22:55;;;;;;;2.22;0.50;;;;;;;24.26;39.77;100068.80;1774985;80;20991;-70
2021/05/20 08:25:24;;;;;;;2.50;1.85;;;;;;;24.16;40.52;100068.30;1774952;80;21475;-70
2021/05/20 08:27:52;;;;;;;0.55;0.50;;;;;;;24.26;40.21;100067.46;1774835;80;21494;-71
2021/05/20 08:30:20;;;;;;;1.75;0.40;;;;;;;24.39;40.21;100069.41;1774973;79;20933;-73
2021/05/20 08:32:47;;;;;;;3.20;0.40;;;;;;;24.36;40.29;100072.47;1775093;80;21618;-72
2021/05/20 08:35:14;;;;;;;3.22;0.50;;;;;;;24.22;39.72;100074.75;1774995;79;21020;-71
2021/05/20 08:37:42;;;;;;;0.40;0.30;;;;;;;24.00;40.47;100074.77;1774983;80;20937;-73
2021/05/20 08:40:12;;;;;;;2.65;0.65;;;;;;;23.85;40.88;100073.50;1775053;79;20914;-72
2021/05/20 08:42:39;;;;;;;1.20;0.40;;;;;;;23.67;41.14;100072.58;1775019;79;20929;-72
2021/05/20 08:45:26;;;;;;;3.22;0.30;;;;;;;23.53;40.88;100084.19;1774753;80;21894;-73
2021/05/20 08:47:55;;;;;;;1.75;0.40;;;;;;;23.38;40.16;100078.87;1774874;80;20989;-72
2021/05/20 08:50:24;;;;;;;1.60;0.47;;;;;;;23.17;40.89;100081.01;1774950;80;21008;-73
2021/05/20 08:52:52;;;;;;;2.22;0.88;;;;;;;23.31;41.20;100077.97;1774940;79;20949;-70
2021/05/20 08:55:22;;;;;;;3.08;0.55;;;;;;;23.48;41.91;100081.26;1774990;79;21402;-72
2021/05/20 08:57:49;;;;;;;1.32;0.70;;;;;;;23.74;40.22;100084.17;1774079;80;21135;-71
2021/05/20 09:00:20;;;;;;;4.47;0.82;;;;;;;23.66;40.38;100082.16;1774838;79;21043;-73
2021/05/20 09:02:47;;;;;;;2.05;0.28;;;;;;;23.61;40.98;100092.59;1774972;80;21033;-72
2021/05/20 09:05:17;;;;;;;0.37;0.20;;;;;;;23.54;40.47;100093.86;1775029;80;20997;-70
2021/05/20 09:07:51;;;;;;;1.30;0.50;;;;;;;23.42;39.68;100096.21;1774927;80;20965;-72
2021/05/20 09:10:22;;;;;;;3.80;0.90;;;;;;;23.28;40.62;100103.27;1775041;80;21371;-73
2021/05/20 09:12:53;;;;;;;0.55;0.40;;;;;;;23.16;41.89;100102.08;1774866;80;21013;-73
2021/05/20 09:15:27;;;;;;;3.30;0.72;;;;;;;23.02;41.39;100107.77;1774233;80;20977;-72
2021/05/20 09:17:54;;;;;;;;;;;;;;;22.88;41.02;100113.42;1777571;79;21470;-73
2021/05/20 09:20:21;;;;;;;1.37;0.70;;;;;;;22.71;41.18;100117.28;1774883;80;20165;-72
2021/05/20 09:22:53;;;;;;;0.57;0.50;;;;;;;22.53;41.54;100125.66;1774953;80;21061;-73
2021/05/20 09:25:20;;;;;;;3.10;2.67;;;;;;;22.44;42.15;100124.08;1771949;80;21000;-73
2021/05/20 09:27:47;;;;;;;3.87;2.02;;;;;;;22.38;41.58;100122.13;1721042;80;20902;-72
2021/05/20 09:30:25;;;;;;;3.10;1.52;;;;;;;22.42;42.27;100127.44;1774836;80;21375;-71
2021/05/20 09:33:06;;;;;;;5.33;2.55;;;;;;;22.49;42.01;100126.52;1775036;79;20958;-72
2021/05/20 09:35:46;;;;;;;2.75;0.90;;;;;;;22.59;42.03;100127.61;1774658;80;21136;-71
2021/05/20 09:38:24;;;;;;;1.65;0.60;;;;;;;22.67;41.83;100127.50;1774963;79;21009;-72
2021/05/20 09:40:57;;;;;;;2.20;0.90;;;;;;;22.82;41.47;100132.87;1775213;79;21497;-72
2021/05/20 09:43:39;;;;;;;1.12;0.40;;;;;;;23.10;41.25;100122.39;1775244;79;21490;-72
2021/05/20 09:46:14;;;;;;;1.07;0.45;;;;;;;23.46;40.47;100118.91;1775049;80;21415;-73
2021/05/20 09:48:48;;;;;;;1.65;0.50;;;;;;;23.86;39.82;100120.70;1775087;79;21061;-74
2021/05/20 09:51:28;;;;;;;1.72;0.35;;;;;;;24.22;40.15;100114.94;1774934;80;20929;-73
2021/05/20 09:53:56;;;;;;;2.30;0.93;;;;;;;24.73;39.08;100117.40;1774965;80;20902;-75
2021/05/20 09:56:41;;;;;;;1.50;0.65;;;;;;;24.96;37.23;100119.78;1774967;80;21545;-74
2021/05/20 09:59:12;;;;;;;1.20;0.80;;;;;;;25.06;36.79;100127.46;1775131;80;20902;-74
2021/05/20 10:01:39;;;;;;;2.25;0.47;;;;;;;25.14;36.69;100121.94;1774646;80;21625;-71
2021/05/20 10:04:09;;;;;;;0.70;0.40;;;;;;;25.34;36.60;100127.42;1774949;80;21403;-72
2021/05/20 10:06:41;;;;;;;0.70;0.40;;;;;;;25.55;36.41;100129.98;1775013;79;20917;-72
2021/05/20 10:09:11;;;;;;;0.97;0.30;;;;;;;25.77;35.73;100125.80;1775245;80;20926;-72
2021/05/20 10:11:41;;;;;;;2.00;0.17;;;;;;;25.76;34.79;100126.30;1775066;80;21340;-73
2021/05/20 10:14:07;;;;;;;1.60;0.50;;;;;;;25.52;35.38;100126.86;1774978;79;21107;-73
2021/05/20 10:16:39;;;;;;;3.10;0.60;;;;;;;25.15;36.30;100136.50;1774954;79;21403;-72
2021/05/20 10:19:07;;;;;;;1.92;0.98;;;;;;;24.90;36.75;100135.33;1775134;79;20925;-71
2021/05/20 10:21:34;;;;;;;2.25;0.30;;;;;;;24.80;37.17;100131.67;1775009;79;20946;-72
2021/05/20 10:24:01;;;;;;;1.55;0.45;;;;;;;24.80;37.28;100133.83;1775131;80;20949;-72
2021/05/20 10:26:29;;;;;;;1.65;0.45;;;;;;;24.86;37.51;100140.80;1747033;80;21163;-72
2021/05/20 10:28:58;;;;;;;3.10;0.25;;;;;;;24.89;37.03;100146.58;1747083;80;21072;-73
2021/05/20 10:31:25;;;;;;;1.80;0.33;;;;;;;24.90;36.63;100140.20;1775116;80;20878;-74
2021/05/20 10:33:52;;;;;;;2.42;0.40;;;;;;;24.82;36.95;100140.34;1775027;80;21482;-73
2021/05/20 10:36:26;;;;;;;3.35;1.95;;;;;;;24.75;37.31;100136.28;1774968;79;21088;-73
2021/05/20 10:38:53;;;;;;;1.02;0.30;;;;;;;24.80;36.85;100144.56;1775060;80;21078;-73
2021/05/20 10:41:24;;;;;;;2.55;0.20;;;;;;;24.97;36.68;100142.92;1774923;80;20990;-73
2021/05/20 10:44:08;;;;;;;3.40;0.30;;;;;;;25.16;36.48;100140.83;1775036;80;20878;-73
2021/05/20 10:47:01;;;;;;;1.60;0.40;;;;;;;25.46;36.27;100135.71;1774557;79;20918;-74
2021/05/20 10:49:53;;;;;;;1.15;1.07;;;;;;;25.67;35.77;100131.55;1774554;79;20934;-72
2021/05/20 10:52:40;;;;;;;1.27;0.30;;;;;;;25.85;35.79;100137.67;1774600;80;21102;-73
2021/05/20 10:55:13;;;;;;;1.32;0.30;;;;;;;26.10;36.23;100140.66;1774454;80;20889;-73
2021/05/20 10:58:01;;;;;;;0.13;0.10;;;;;;;26.36;34.52;100138.47;1774211;79;21020;-73
2021/05/20 11:00:38;;;;;;;2.25;0.30;;;;;;;26.56;34.15;100133.11;1774140;80;20922;-71
2021/05/20 11:03:06;;;;;;;2.20;0.40;;;;;;;26.74;34.33;100136.48;1774473;80;20902;-74
2021/05/20 11:05:48;;;;;;;1.47;0.25;;;;;;;26.85;33.99;100142.56;1774591;79;21628;-72
2021/05/20 11:08:39;;;;;;;1.75;0.20;;;;;;;26.97;33.77;100139.23;1774500;79;20934;-71
2021/05/20 11:11:09;;;;;;;5.35;0.60;;;;;;;26.99;33.28;100123.69;1774376;80;20921;-72
2021/05/20 11:13:45;;;;;;;4.67;0.90;;;;;;;26.98;32.94;100139.55;1750609;80;21383;-73
2021/05/20 11:16:14;;;;;;;3.75;0.50;;;;;;;26.75;33.37;100140.03;1774582;80;20974;-72
2021/05/20 11:18:41;;;;;;;2.55;0.30;;;;;;;26.57;33.63;100144.69;1774522;79;21561;-71
2021/05/20 11:21:09;;;;;;;1.00;0.30;;;;;;;26.35;34.39;100141.39;1774328;80;20985;-72
2021/05/20 11:23:38;;;;;;;2.65;0.33;;;;;;;26.16;34.10;100142.50;1774516;80;21091;-71
2021/05/20 11:26:23;;;;;;;1.90;0.45;;;;;;;25.99;34.29;100135.86;1774733;80;20886;-72
2021/05/20 11:28:58;;;;;;;0.78;0.10;;;;;;;25.87;34.94;100139.65;1772821;80;21013;-72
2021/05/20 11:31:26;;;;;;;1.42;0.40;;;;;;;25.68;34.58;100137.73;1774520;80;21048;-73
2021/05/20 11:34:11;;;;;;;1.25;0.25;;;;;;;25.54;35.02;100137.70;1774328;80;21530;-71
2021/05/20 11:36:43;;;;;;;0.15;0.10;;;;;;;25.46;34.98;100138.39;1773967;80;20960;-71
2021/05/20 11:39:15;;;;;;;2.52;0.30;;;;;;;25.17;35.07;100140.34;1774327;80;21513;-74
2021/05/20 11:41:43;;;;;;;2.05;0.30;;;;;;;24.97;36.51;100146.42;1774518;80;20922;-73
2021/05/20 11:44:15;;;;;;;0.17;0.17;;;;;;;24.89;37.27;100135.02;1774398;80;21133;-71
2021/05/20 11:46:56;;;;;;;1.10;0.30;;;;;;;24.82;36.43;100131.78;1774239;80;20961;-70
2021/05/20 11:49:23;;;;;;;3.40;0.30;;;;;;;24.65;35.51;100130.44;1774461;80;20969;-71